Friday, April 20, 2018, 3:57 PM EDT
Back to Local

KMTP, Montauk Airport

Location: Montauk, NY, United States Lat: 41.067
Local Time: 3:57 PM EDT (19:57 GMT) Lon: -71.917
Time Zone: US/Eastern Elev: 6 ft

Show me the last for .
Show Coded

Time T Td Feel RH Dir Speed Gust Alt SLP Vis Weather Sky Remarks
2018-04-20 14:54 50 31 44 47 290° 14 20 30.12 30.11 0 None
2018-04-20 13:54 51 29 - 42 300° 15 22 30.11 30.11 0 6-hr Min Temp (2pm): 39.0°F
6-hr Max Temp (2pm): 51.1°F
2018-04-20 12:54 49 30 42 47 290° 13 20 30.10 30.10 0 None
2018-04-20 11:54 47 28 39 47 290° 10 21 30.10 30.09 0 None
2018-04-20 10:54 45 26 37 47 310° 15 21 30.09 30.09 0 None
2018-04-20 09:54 43 26 34 50 310° 15 23 30.08 30.07 0 None
2018-04-20 08:54 41 26 31 54 310° 13 22 30.06 30.06 0 None
2018-04-20 07:54 39 26 28 59 300° 14 24 30.05 30.05 0 24-hr Precip Total (8am): 0.09"
6-hr Min Temp (8am): 37.9°F
6-hr Max Temp (8am): 39.9°F
2018-04-20 06:54 38 26 27 61 300° 15 24 30.02 30.02 0 None
2018-04-20 05:54 38 26 27 61 310° 14 23 30.01 30.00 0 None
2018-04-20 04:54 38 26 27 61 300° 15 23 29.98 29.98 0 None
2018-04-20 03:54 39 26 28 59 300° 13 24 29.96 29.96 0 None
2018-04-20 02:54 39 26 28 59 300° 14 25 29.95 29.94 0 None
2018-04-20 01:54 40 27 30 59 310° 14 23 29.93 29.93 0 6-hr Min Temp (2am): 39.9°F
6-hr Max Temp (2am): 44.1°F
2018-04-20 00:54 41 29 31 61 300° 14 25 29.93 29.93 0 24-hr Min Temp (1am): 41.0°F
24-hr Max Temp (1am): 46.9°F
2018-04-19 23:54 41 30 31 64 300° 15 24 29.92 29.91 0 None
2018-04-19 22:54 42 30 31 62 310° 17 29 29.90 29.90 0 None
2018-04-19 21:54 44 32 35 62 300° 13 23 29.87 29.87 0 None
2018-04-19 20:54 44 35 36 70 290° 9 20 29.85 29.85 0 None
2018-04-19 19:54 44 39 35 82 290° 12 22 29.82 29.82 0 6-hr Precip Total (8pm): 0.04"
6-hr Min Temp (8pm): 43.0°F
6-hr Max Temp (8pm): 44.1°F
2018-04-19 18:54 44 39 39 82 270° 9 - 29.79 29.79 0 None
2018-04-19 17:54 43 40 38 88 290° 9 - 29.77 29.77 0 None
2018-04-19 16:54 44 40 39 85 320° 9 - 29.74 29.74 0 1-hr Precip Total: 0.01"
6-hr Precip Total (5pm): 0.04"

Support USWX by starting your Amazon purchase here.